Time;durP1;ratioP1;P1;durP2;ratioP2;P2;SDS_P1;SDS_P2;PMS_P1;PMS_P2;Temp;Humidity;BMP_temperature;BMP_pressure;BME280_temperature;BME280_humidity;BME280_pressure;Samples;Min_cycle;Max_cycle;Signal;HPM_P1;HPM_P2
2023/03/28 00:02:42;;;;;;;21.77;4.32;;;;;;;23.43;41.61;101185.78;21088451;28;20036;-73
2023/03/28 00:12:44;;;;;;;27.60;5.40;;;;;;;23.41;40.91;101169.28;21066892;28;20045;-69
2023/03/28 00:22:46;;;;;;;22.38;4.00;;;;;;;23.34;41.38;101194.75;21064884;28;20085;-70
2023/03/28 00:32:50;;;;;;;18.65;4.82;;;;;;;23.16;41.71;101170.34;21068392;28;20097;-76
2023/03/28 00:42:52;;;;;;;19.98;4.50;;;;;;;22.77;41.25;101136.78;21061790;28;20572;-73
2023/03/28 00:53:03;;;;;;;15.77;4.00;;;;;;;23.19;41.59;101239.56;21056230;28;20100;-71
2023/03/28 01:03:05;;;;;;;17.77;4.35;;;;;;;22.98;41.52;101240.81;21057765;28;20048;-72
2023/03/28 01:13:07;;;;;;;13.93;3.72;;;;;;;23.10;41.67;101291.53;21052609;28;20101;-72
2023/03/28 01:23:32;;;;;;;14.50;3.72;;;;;;;23.07;41.77;101306.06;21064551;28;20168;-75
2023/03/28 01:33:52;;;;;;;15.32;4.32;;;;;;;23.03;41.43;101316.13;21055391;28;20063;-75
2023/03/28 01:44:21;;;;;;;15.32;3.70;;;;;;;22.88;41.72;101282.69;21052945;28;20039;-73
2023/03/28 01:54:43;;;;;;;11.47;3.43;;;;;;;23.03;41.80;101346.81;21057946;28;20056;-73
2023/03/28 02:04:47;;;;;;;12.23;3.03;;;;;;;22.99;41.79;101346.56;21060256;28;20039;-72
2023/03/28 02:14:51;;;;;;;11.90;3.25;;;;;;;22.81;42.00;101336.81;21050112;28;20714;-72
2023/03/28 02:25:02;;;;;;;14.93;5.30;;;;;;;22.89;41.90;101348.53;21059710;28;20036;-69
2023/03/28 02:35:06;;;;;;;17.67;6.68;;;;;;;22.75;41.72;101351.91;21065014;28;20048;-73
2023/03/28 02:45:07;;;;;;;21.23;8.52;;;;;;;22.95;41.96;101418.03;21051802;28;20032;-74
2023/03/28 02:55:34;;;;;;;19.10;8.40;;;;;;;22.43;42.18;101363.44;21050510;28;20059;-74
2023/03/28 03:05:40;;;;;;;20.60;9.27;;;;;;;22.84;42.25;101430.31;21050618;28;20066;-74
2023/03/28 03:15:45;;;;;;;24.45;9.75;;;;;;;22.82;42.61;101426.97;21067363;28;20393;-71
2023/03/28 03:25:49;;;;;;;25.55;10.48;;;;;;;22.54;42.51;101364.22;21083036;28;20028;-71
2023/03/28 03:35:52;;;;;;;21.55;9.82;;;;;;;22.52;42.49;101377.63;21086730;28;20053;-73
2023/03/28 03:45:55;;;;;;;18.42;9.13;;;;;;;22.72;42.13;101430.59;21081917;28;20051;-72
2023/03/28 03:56:02;;;;;;;17.77;9.75;;;;;;;22.34;41.97;101356.75;21087579;28;20044;-72
2023/03/28 04:06:04;;;;;;;17.03;9.13;;;;;;;22.68;41.63;101421.13;21083749;28;20423;-73
2023/03/28 04:16:07;;;;;;;18.35;8.52;;;;;;;22.53;41.55;101380.13;21041480;28;20500;-72
2023/03/28 04:26:09;;;;;;;16.52;8.50;;;;;;;22.59;41.38;101397.72;21057351;28;20472;-70
2023/03/28 04:36:15;;;;;;;14.25;8.20;;;;;;;22.47;41.44;101366.50;21079940;28;20048;-71
2023/03/28 04:46:19;;;;;;;15.20;8.27;;;;;;;22.58;41.03;101393.22;21072053;28;20044;-71
2023/03/28 04:56:22;;;;;;;12.90;6.95;;;;;;;22.73;41.19;101423.09;21072409;28;20040;-71
2023/03/28 05:06:26;;;;;;;11.02;7.28;;;;;;;22.70;40.99;101427.25;21071053;28;20556;-70
2023/03/28 05:16:27;;;;;;;13.43;7.55;;;;;;;22.69;40.99;101452.66;21068776;28;20039;-70
2023/03/28 05:26:29;;;;;;;8.93;6.40;;;;;;;22.67;40.58;101458.50;21070662;28;20357;-72
2023/03/28 05:36:31;;;;;;;10.55;6.72;;;;;;;22.65;40.52;101463.53;21068597;28;20052;-73
2023/03/28 05:46:35;;;;;;;10.73;6.65;;;;;;;22.62;40.64;101457.69;21071712;28;20438;-71
2023/03/28 05:56:36;;;;;;;11.10;6.50;;;;;;;22.61;40.34;101476.38;21073095;28;20116;-73
2023/03/28 06:06:38;;;;;;;8.50;5.72;;;;;;;22.60;40.26;101497.00;21062584;28;20070;-71
2023/03/28 06:16:39;;;;;;;11.07;6.80;;;;;;;22.47;40.34;101481.66;21067580;28;20044;-71
2023/03/28 06:26:41;;;;;;;8.80;5.43;;;;;;;22.59;40.33;101500.94;21057584;28;20105;-72
2023/03/28 06:36:42;;;;;;;11.45;6.00;;;;;;;22.50;40.15;101491.44;21067690;28;20372;-71
2023/03/28 06:46:44;;;;;;;8.25;6.15;;;;;;;22.52;39.91;101503.16;21061160;28;20040;-70
2023/03/28 06:56:45;;;;;;;8.02;5.25;;;;;;;22.32;40.12;101485.28;21056778;28;20020;-71
2023/03/28 07:06:48;;;;;;;8.35;5.15;;;;;;;22.53;40.09;101515.97;21066739;28;20474;-71
2023/03/28 07:16:49;;;;;;;8.65;5.35;;;;;;;22.48;39.82;101510.38;21070050;28;20040;-71
2023/03/28 07:26:50;;;;;;;6.25;4.95;;;;;;;22.50;39.72;101533.28;21067559;28;20044;-70
2023/03/28 07:36:52;;;;;;;7.78;5.60;;;;;;;22.46;39.77;101535.78;21071299;28;20048;-71
2023/03/28 07:46:53;;;;;;;7.18;4.82;;;;;;;22.47;39.73;101542.19;21068206;28;20475;-70
2023/03/28 07:56:54;;;;;;;6.28;4.65;;;;;;;22.45;39.58;101533.25;21073458;28;20454;-71
2023/03/28 08:06:56;;;;;;;7.82;4.43;;;;;;;22.44;39.38;101537.16;21078777;28;20043;-71
2023/03/28 08:16:58;;;;;;;5.88;4.30;;;;;;;21.66;39.03;101448.88;21074686;28;20445;-72
2023/03/28 08:26:59;;;;;;;5.18;3.88;;;;;;;22.44;39.15;101537.16;21080860;28;20051;-72
2023/03/28 08:37:01;;;;;;;4.78;4.32;;;;;;;22.03;39.15;101459.00;21085027;28;20036;-70
2023/03/28 08:47:25;;;;;;;6.75;3.90;;;;;;;22.30;38.90;101507.00;21080014;28;20040;-71
2023/03/28 08:57:32;;;;;;;5.10;4.03;;;;;;;22.28;38.83;101488.91;21075269;28;20048;-72
2023/03/28 09:08:25;;;;;;;6.57;4.23;;;;;;;22.32;39.27;101506.75;21077104;28;20044;-72
2023/03/28 09:18:44;;;;;;;5.32;3.63;;;;;;;22.38;38.74;101493.66;21058991;28;20059;-72
2023/03/28 09:28:55;;;;;;;4.97;4.13;;;;;;;22.32;38.84;101485.28;21079257;28;20040;-72
2023/03/28 09:39:27;;;;;;;4.88;3.63;;;;;;;22.28;38.90;101489.75;21077125;28;20391;-71
2023/03/28 09:49:31;;;;;;;5.00;3.70;;;;;;;22.22;38.84;101501.16;21073217;28;20044;-71
2023/03/28 09:59:34;;;;;;;3.97;3.58;;;;;;;22.29;38.57;101530.44;21076755;27;20491;-71
2023/03/28 10:09:50;;;;;;;5.30;3.55;;;;;;;22.10;38.73;101548.78;21069816;28;20032;-71
2023/03/28 10:20:00;;;;;;;4.68;3.58;;;;;;;22.05;38.90;101541.22;21072048;28;20105;-71
2023/03/28 10:30:25;;;;;;;4.57;3.40;;;;;;;22.25;38.54;101585.06;21073638;28;20069;-72
2023/03/28 10:40:28;;;;;;;5.18;3.28;;;;;;;22.33;38.52;101592.06;21062344;28;20048;-71
2023/03/28 10:50:46;;;;;;;3.55;3.20;;;;;;;22.27;38.35;101610.75;21069068;28;20048;-72
2023/03/28 11:00:56;;;;;;;4.97;3.25;;;;;;;22.39;38.36;101641.16;21068738;28;20048;-71
2023/03/28 11:11:07;;;;;;;4.43;3.15;;;;;;;22.42;38.34;101656.53;21057946;28;20117;-72
2023/03/28 11:21:26;;;;;;;3.00;2.70;;;;;;;22.48;38.12;101672.16;21065751;28;20494;-71
2023/03/28 11:31:48;;;;;;;6.85;2.72;;;;;;;22.49;39.27;101679.41;21064926;28;20110;-72
2023/03/28 11:41:52;;;;;;;6.80;2.92;;;;;;;22.44;39.87;101671.00;21076335;28;20105;-70
2023/03/28 11:52:18;;;;;;;4.93;2.85;;;;;;;22.53;39.99;101708.41;21079420;28;20066;-74
2023/03/28 12:02:29;;;;;;;29.27;3.55;;;;;;;22.57;40.54;101720.72;21060348;28;20055;-75
2023/03/28 12:12:35;;;;;;;8.02;3.25;;;;;;;22.30;40.64;101693.81;21070260;28;20047;-73
2023/03/28 12:22:51;;;;;;;12.23;3.08;;;;;;;22.49;40.78;101729.59;21072309;28;20036;-75
2023/03/28 12:33:15;;;;;;;15.50;3.08;;;;;;;22.68;41.13;101763.41;21069779;28;20384;-77
2023/03/28 12:43:24;;;;;;;150.48;14.93;;;;;;;22.62;42.34;101748.63;21066626;28;20040;-81
2023/03/28 12:53:30;;;;;;;18.02;4.00;;;;;;;22.82;43.36;101773.81;21059186;28;20036;-74
2023/03/28 13:03:37;;;;;;;28.00;3.55;;;;;;;22.85;43.45;101778.00;21073607;28;20040;-75
2023/03/28 13:14:16;;;;;;;17.05;3.60;;;;;;;22.88;42.65;101773.84;21106576;28;20048;-76
2023/03/28 13:24:36;;;;;;;22.43;3.60;;;;;;;22.65;42.41;101745.28;21074992;28;20061;-74
2023/03/28 13:34:37;;;;;;;9.20;2.70;;;;;;;22.78;42.32;101772.69;21087112;28;20058;-75
2023/03/28 13:44:43;;;;;;;8.88;2.97;;;;;;;22.83;41.81;101797.81;21074883;28;20047;-75
2023/03/28 13:54:57;;;;;;;10.10;2.47;;;;;;;22.83;41.67;101791.41;21071286;28;20052;-72
2023/03/28 14:05:24;;;;;;;5.80;2.47;;;;;;;22.97;41.38;101791.75;21070127;28;20047;-75
2023/03/28 14:15:29;;;;;;;9.13;2.42;;;;;;;23.07;40.86;101789.81;21062407;28;20044;-72
2023/03/28 14:25:33;;;;;;;5.30;2.08;;;;;;;23.10;40.92;101812.75;21074898;28;20078;-75
2023/03/28 14:35:36;;;;;;;5.43;1.73;;;;;;;22.91;40.58;101770.50;21066222;28;20036;-75
2023/03/28 14:45:46;;;;;;;5.50;1.73;;;;;;;23.12;40.33;101811.34;21068988;28;20387;-77
2023/03/28 14:55:49;;;;;;;3.78;1.65;;;;;;;22.74;40.28;101765.97;21070554;28;20039;-74
2023/03/28 15:05:53;;;;;;;3.30;1.75;;;;;;;23.14;39.76;101833.38;21070067;28;20395;-74
2023/03/28 15:15:56;;;;;;;2.00;1.50;;;;;;;23.17;39.16;101847.66;21063806;28;20097;-77
2023/03/28 15:26:02;;;;;;;1.73;1.42;;;;;;;23.17;39.22;101846.81;21078936;28;20044;-75
2023/03/28 15:36:27;;;;;;;1.85;1.50;;;;;;;23.05;39.19;101855.44;21076271;28;20043;-75
2023/03/28 15:46:32;;;;;;;4.72;1.65;;;;;;;22.86;39.23;101840.22;21076860;28;20040;-77
2023/03/28 15:56:37;;;;;;;4.38;1.35;;;;;;;23.03;38.73;101857.66;21076880;28;20048;-77
2023/03/28 16:06:41;;;;;;;8.38;1.45;;;;;;;23.02;38.80;101865.19;21097064;28;20048;-76
2023/03/28 16:16:42;;;;;;;10.60;2.08;;;;;;;23.04;39.07;101864.91;21079950;28;20369;-75
2023/03/28 16:26:43;;;;;;;9.25;2.33;;;;;;;23.07;38.27;101853.19;21081410;28;20545;-73
2023/03/28 16:36:51;;;;;;;5.45;1.40;;;;;;;23.03;38.33;101849.28;21071955;28;20445;-73
2023/03/28 16:46:52;;;;;;;9.63;1.75;;;;;;;22.65;38.38;101777.94;21082868;28;20039;-72
2023/03/28 16:56:54;;;;;;;4.38;1.02;;;;;;;22.92;38.20;101809.31;21082523;28;20048;-73
2023/03/28 17:06:58;;;;;;;14.07;1.65;;;;;;;22.89;38.88;101807.06;21072176;28;20077;-74
2023/03/28 17:17:00;;;;;;;8.02;1.60;;;;;;;22.83;38.59;101828.50;21077732;28;20044;-72
2023/03/28 17:27:01;;;;;;;8.90;1.60;;;;;;;22.78;38.27;101808.97;21055013;28;20040;-77
2023/03/28 17:37:03;;;;;;;3.85;1.40;;;;;;;22.72;38.47;101803.63;21066961;28;20052;-72
2023/03/28 17:47:04;;;;;;;4.43;1.17;;;;;;;22.82;38.08;101812.88;21055264;28;20040;-75
2023/03/28 17:57:07;;;;;;;3.17;1.02;;;;;;;22.78;38.13;101811.75;21058857;28;20044;-72
2023/03/28 18:07:08;;;;;;;5.47;1.20;;;;;;;22.74;38.51;101810.63;21046720;28;20082;-72
2023/03/28 18:17:10;;;;;;;2.88;1.15;;;;;;;22.48;37.98;101778.97;21040975;28;20076;-74
2023/03/28 18:27:12;;;;;;;3.70;1.20;;;;;;;22.50;38.05;101775.94;21043367;28;20052;-69
2023/03/28 18:37:13;;;;;;;4.03;0.77;;;;;;;22.54;38.35;101799.34;21036431;28;20101;-71
2023/03/28 18:47:15;;;;;;;4.38;1.23;;;;;;;22.60;38.10;101795.50;21044406;28;20067;-71
2023/03/28 18:57:16;;;;;;;15.25;1.83;;;;;;;22.67;38.27;101782.13;21043621;28;20036;-71
2023/03/28 19:07:18;;;;;;;10.10;1.20;;;;;;;22.44;38.63;101727.63;21046403;28;20040;-73
2023/03/28 19:17:19;;;;;;;3.72;1.00;;;;;;;22.66;38.05;101746.13;21065938;28;20495;-72
2023/03/28 19:27:21;;;;;;;7.53;1.05;;;;;;;22.63;38.00;101741.91;21048128;28;20100;-73
2023/03/28 19:37:22;;;;;;;5.95;1.35;;;;;;;22.63;38.05;101718.78;21053251;28;20048;-72
2023/03/28 19:47:23;;;;;;;4.28;1.00;;;;;;;22.65;38.30;101725.75;21053699;28;20495;-74
2023/03/28 19:57:25;;;;;;;6.47;1.33;;;;;;;22.61;39.05;101704.28;21069433;28;20044;-73
2023/03/28 20:07:27;;;;;;;7.53;1.10;;;;;;;22.61;39.57;101710.69;21056131;28;20090;-66
2023/03/28 20:17:28;;;;;;;13.77;1.95;;;;;;;22.85;39.19;101722.19;21034767;28;20036;-66
2023/03/28 20:27:30;;;;;;;16.67;1.73;;;;;;;22.65;38.87;101688.66;21038024;28;20050;-67
2023/03/28 20:37:33;;;;;;;7.57;1.45;;;;;;;22.89;38.72;101702.94;21052448;28;20047;-72
2023/03/28 20:47:36;;;;;;;9.98;1.50;;;;;;;22.94;38.24;101714.97;21039958;28;20044;-71
2023/03/28 20:57:41;;;;;;;6.43;1.13;;;;;;;22.79;38.56;101740.03;21073938;28;20437;-75
2023/03/28 21:07:45;;;;;;;24.60;2.00;;;;;;;22.37;38.68;101692.75;21038499;28;20040;-71
2023/03/28 21:17:48;;;;;;;8.00;1.50;;;;;;;22.66;38.94;101755.34;21077772;28;20094;-68
2023/03/28 21:27:49;;;;;;;8.35;1.42;;;;;;;22.92;38.73;101766.63;21046831;28;20024;-69
2023/03/28 21:37:56;;;;;;;6.00;1.35;;;;;;;23.05;38.63;101771.69;21047274;28;20089;-70
2023/03/28 21:47:57;;;;;;;7.28;1.45;;;;;;;23.09;38.75;101783.97;21070154;28;20093;-69
2023/03/28 21:58:02;;;;;;;6.50;1.50;;;;;;;23.07;38.99;101766.66;21063450;28;20066;-70
2023/03/28 22:08:03;;;;;;;5.85;0.90;;;;;;;23.04;38.79;101759.66;21059396;28;20052;-68
2023/03/28 22:18:07;;;;;;;6.85;1.02;;;;;;;23.13;38.81;101770.28;21070692;28;20453;-68
2023/03/28 22:28:10;;;;;;;5.65;1.10;;;;;;;23.08;38.79;101768.31;21026870;28;20044;-68
2023/03/28 22:38:11;;;;;;;4.50;1.10;;;;;;;23.23;38.90;101810.25;21032314;28;20915;-69
2023/03/28 22:48:13;;;;;;;2.00;1.13;;;;;;;23.25;38.95;101816.41;21037213;28;20063;-68
2023/03/28 22:58:18;;;;;;;6.55;1.75;;;;;;;22.99;37.32;101842.56;21039939;28;20076;-73
2023/03/28 23:08:19;;;;;;;14.52;1.70;;;;;;;22.95;37.93;101833.03;21034897;28;21612;-71
2023/03/28 23:18:21;;;;;;;5.20;1.48;;;;;;;23.13;38.25;101863.25;21053616;28;20048;-70
2023/03/28 23:28:22;;;;;;;5.70;1.58;;;;;;;23.17;38.11;101858.81;21053532;28;20434;-72
2023/03/28 23:38:24;;;;;;;5.70;1.40;;;;;;;23.10;38.12;101849.88;20964620;28;20136;-74
2023/03/28 23:48:26;;;;;;;2.67;1.20;;;;;;;23.20;38.02;101877.81;20930469;28;20118;-73
2023/03/28 23:58:27;;;;;;;1.88;0.82;;;;;;;22.90;38.11;101822.69;20914215;28;20044;-74
